VTBS/BKK METAR and TAF weather

Enter ICAO airport designator
Station Type Date Time Source
VTBS METAR 2021/05/10 01:00 UTC NOAA

VTBS 100100Z 28004KT 250V320 9000 FEW020 29/27 Q1009 NOSIG


Station Type Date Time Source
VTBS Decoded METAR 2021/05/10 01:00 UTC NOAA

Chon Buri, Thailand (VTBS) 13-22N 100-59E 2M
May 09, 2021 - 09:00 PM EDT / 2021.05.10 0100 UTC
Wind: from the W (280 degrees) at 5 MPH (4 KT) (direction variable):0
Visibility: 5 mile(s):0
Sky conditions: mostly clear
Temperature: 84 F (29 C)
Dew Point: 80 F (27 C)
Relative Humidity: 88%
Pressure (altimeter): 29.80 in. Hg (1009 hPa)
ob: VTBS 100100Z 28004KT 250V320 9000 FEW020 29/27 Q1009 NOSIG
cycle: 1

Station Type Date Time Source
VTBS TAF 2021/05/09 18:00 UTC NOAA

TAF VTBS 091700Z 0918/1024 20008KT 9999 FEW020
TEMPO 1008/1012 VRB15KT 3000 TSRA FEW018CB SCT030

Example: see airport list